Oberon — SKJF — position and weather

sailwx.info

Track history (hours):
 
Tides and Currents Weather Stations Pressure Air Temp Water Temp Dewpoint Dewpoint Depression Visibility Wind Speed Wind Dir Waves Ship Positions

Oberon

Last reported at 2015-Jan-28 22:12 UTC. Time now 2015-Jan-30 04:52 UTC.
Position S 30°54' E 114°47'.

Length 232 m; draft 8.1 m.

Type: Cargo ship. MMSI: 266283000.

Date/timePositionNaut miles runAvg speedWind from/ knotsBaromVisibWave heightAir tempDewpointWater temp
2015-Jan-28 22:12S 30°54' E 114°47'1217.9
2015-Jan-28 21:31S 31°04' E 114°55'1818.4
2015-Jan-28 20:33S 31°19' E 115°07'2118.8
2015-Jan-28 19:28S 31°35' E 115°21'1618.2
2015-Jan-28 18:33S 31°49' E 115°32'1514.6
2015-Jan-28 17:33S 32°01' E 115°42'3 3.0
2015-Jan-28 16:33S 32°02' E 115°45'0 0.0
2015-Jan-28 15:31S 32°02' E 115°45'0 0.0
2015-Jan-28 14:31S 32°02' E 115°45'0 0.0
2015-Jan-28 13:31S 32°02' E 115°45'0 0.0
2015-Jan-28 12:31S 32°02' E 115°45'0 0.0
2015-Jan-28 11:31S 32°02' E 115°45'0 0.0
2015-Jan-28 10:31S 32°02' E 115°45'0 0.0
2015-Jan-28 09:31S 32°02' E 115°45'0 0.0
2015-Jan-28 08:31S 32°02' E 115°45'0 0.0
2015-Jan-28 07:31S 32°02' E 115°45'0 0.0
2015-Jan-28 06:31S 32°02' E 115°45'0 0.0
2015-Jan-28 05:31S 32°02' E 115°45'0 0.0
2015-Jan-28 04:31S 32°02' E 115°45'0 0.0
2015-Jan-28 03:31S 32°02' E 115°45'0 0.0
2015-Jan-28 02:25S 32°02' E 115°45'0 0.0
2015-Jan-28 01:31S 32°02' E 115°45'0 0.0
2015-Jan-28 00:31S 32°02' E 115°45'0 0.0
2015-Jan-27 23:31S 32°02' E 115°45'0 0.0
2015-Jan-27 22:31S 32°02' E 115°45'0 0.0
2015-Jan-27 21:31S 32°02' E 115°45'0 0.0
2015-Jan-27 20:31S 32°02' E 115°45'0 0.0
2015-Jan-27 19:31S 32°02' E 115°45'0 0.0
2015-Jan-27 18:31S 32°02' E 115°45'0 0.0
2015-Jan-27 17:31S 32°02' E 115°45'0 0.0
2015-Jan-27 16:31S 32°02' E 115°45'0 0.0
2015-Jan-27 15:31S 32°02' E 115°45'0 0.0
2015-Jan-27 14:31S 32°02' E 115°45'0 0.0
2015-Jan-27 13:31S 32°02' E 115°45'0 0.0
2015-Jan-27 12:31S 32°02' E 115°45'0 0.5
2015-Jan-27 11:33S 32°03' E 115°45'7 6.5
2015-Jan-27 10:34S 31°58' E 115°40'1313.5
2015-Jan-27 09:33S 31°55' E 115°24'1616.0
2015-Jan-27 08:34S 32°08' E 115°13'25812.9
2015-Jan-26 12:32S 35°28' E 118°29'  
2015-Jan-23 17:18S 38°33' E 140°31'5514.6
2015-Jan-23 13:33S 38°47' E 141°39'1615.9
2015-Jan-23 12:33S 38°50' E 141°59'1716.7
2015-Jan-23 11:33S 38°52' E 142°21'1817.1
2015-Jan-23 10:30S 38°55' E 142°43'  
2015-Jan-19 22:33S 38°42' E 145°08'1616.0
2015-Jan-19 21:33S 38°50' E 145°26'1615.6
2015-Jan-19 20:33S 38°58' E 145°43'1615.6
2015-Jan-19 19:33S 39°06' E 146°01'1515.5
2015-Jan-19 18:34S 39°12' E 146°19'1615.8
2015-Jan-19 17:33S 39°07' E 146°38'1615.6
2015-Jan-19 16:33S 39°02' E 146°57'1615.6
2015-Jan-19 15:33S 38°57' E 147°16'1615.7
2015-Jan-19 14:33S 38°52' E 147°36'1615.9
2015-Jan-19 13:33S 38°47' E 147°55'1716.5
2015-Jan-19 12:31S 38°41' E 148°16'1716.7
2015-Jan-19 11:30S 38°34' E 148°35'1616.8
2015-Jan-19 10:33S 38°24' E 148°51'1717.5
2015-Jan-19 09:33S 38°13' E 149°09'2218.1
2015-Jan-19 08:21S 38°00' E 149°31'1518.3
2015-Jan-19 07:32S 37°51' E 149°46'1817.7
2015-Jan-19 06:33S 37°41' E 150°04'1717.0
2015-Jan-19 05:32S 37°27' E 150°17'1815.8
2015-Jan-19 04:25S 37°10' E 150°22'  
Track history (hours):
 
Tides and Currents Weather Stations Pressure Air Temp Water Temp Dewpoint Dewpoint Depression Visibility Wind Speed Wind Dir Waves Ship Positions

Oberon

Last reported at 2015-Jan-28 22:12 UTC. Time now 2015-Jan-30 04:52 UTC.
Position S 30°54' E 114°47'.

Length 232 m; draft 8.1 m.

Type: Cargo ship. MMSI: 266283000.

Date/timePositionNaut miles runAvg speedWind from/ knotsBaromVisibWave heightAir tempDewpointWater temp
2015-Jan-28 22:12S 30°54' E 114°47'1217.9
2015-Jan-28 21:31S 31°04' E 114°55'1818.4
2015-Jan-28 20:33S 31°19' E 115°07'2118.8
2015-Jan-28 19:28S 31°35' E 115°21'1618.2
2015-Jan-28 18:33S 31°49' E 115°32'1514.6
2015-Jan-28 17:33S 32°01' E 115°42'3 3.0
2015-Jan-28 16:33S 32°02' E 115°45'0 0.0
2015-Jan-28 15:31S 32°02' E 115°45'0 0.0
2015-Jan-28 14:31S 32°02' E 115°45'0 0.0
2015-Jan-28 13:31S 32°02' E 115°45'0 0.0
2015-Jan-28 12:31S 32°02' E 115°45'0 0.0
2015-Jan-28 11:31S 32°02' E 115°45'0 0.0
2015-Jan-28 10:31S 32°02' E 115°45'0 0.0
2015-Jan-28 09:31S 32°02' E 115°45'0 0.0
2015-Jan-28 08:31S 32°02' E 115°45'0 0.0
2015-Jan-28 07:31S 32°02' E 115°45'0 0.0
2015-Jan-28 06:31S 32°02' E 115°45'0 0.0
2015-Jan-28 05:31S 32°02' E 115°45'0 0.0
2015-Jan-28 04:31S 32°02' E 115°45'0 0.0
2015-Jan-28 03:31S 32°02' E 115°45'0 0.0
2015-Jan-28 02:25S 32°02' E 115°45'0 0.0
2015-Jan-28 01:31S 32°02' E 115°45'0 0.0
2015-Jan-28 00:31S 32°02' E 115°45'0 0.0
2015-Jan-27 23:31S 32°02' E 115°45'0 0.0
2015-Jan-27 22:31S 32°02' E 115°45'0 0.0
2015-Jan-27 21:31S 32°02' E 115°45'0 0.0
2015-Jan-27 20:31S 32°02' E 115°45'0 0.0
2015-Jan-27 19:31S 32°02' E 115°45'0 0.0
2015-Jan-27 18:31S 32°02' E 115°45'0 0.0
2015-Jan-27 17:31S 32°02' E 115°45'0 0.0
2015-Jan-27 16:31S 32°02' E 115°45'0 0.0
2015-Jan-27 15:31S 32°02' E 115°45'0 0.0
2015-Jan-27 14:31S 32°02' E 115°45'0 0.0
2015-Jan-27 13:31S 32°02' E 115°45'0 0.0
2015-Jan-27 12:31S 32°02' E 115°45'0 0.5
2015-Jan-27 11:33S 32°03' E 115°45'7 6.5
2015-Jan-27 10:34S 31°58' E 115°40'1313.5
2015-Jan-27 09:33S 31°55' E 115°24'1616.0
2015-Jan-27 08:34S 32°08' E 115°13'25812.9
2015-Jan-26 12:32S 35°28' E 118°29'  
2015-Jan-23 17:18S 38°33' E 140°31'5514.6
2015-Jan-23 13:33S 38°47' E 141°39'1615.9
2015-Jan-23 12:33S 38°50' E 141°59'1716.7
2015-Jan-23 11:33S 38°52' E 142°21'1817.1
2015-Jan-23 10:30S 38°55' E 142°43'  
2015-Jan-19 22:33S 38°42' E 145°08'1616.0
2015-Jan-19 21:33S 38°50' E 145°26'1615.6
2015-Jan-19 20:33S 38°58' E 145°43'1615.6
2015-Jan-19 19:33S 39°06' E 146°01'1515.5
2015-Jan-19 18:34S 39°12' E 146°19'1615.8
2015-Jan-19 17:33S 39°07' E 146°38'1615.6
2015-Jan-19 16:33S 39°02' E 146°57'1615.6
2015-Jan-19 15:33S 38°57' E 147°16'1615.7
2015-Jan-19 14:33S 38°52' E 147°36'1615.9
2015-Jan-19 13:33S 38°47' E 147°55'1716.5
2015-Jan-19 12:31S 38°41' E 148°16'1716.7
2015-Jan-19 11:30S 38°34' E 148°35'1616.8
2015-Jan-19 10:33S 38°24' E 148°51'1717.5
2015-Jan-19 09:33S 38°13' E 149°09'2218.1
2015-Jan-19 08:21S 38°00' E 149°31'1518.3
2015-Jan-19 07:32S 37°51' E 149°46'1817.7
2015-Jan-19 06:33S 37°41' E 150°04'1717.0
2015-Jan-19 05:32S 37°27' E 150°17'1815.8
2015-Jan-19 04:25S 37°10' E 150°22'  

Dump ship's entire track history